Time;durP1;ratioP1;P1;durP2;ratioP2;P2;SDS_P1;SDS_P2;PMS_P1;PMS_P2;Temp;Humidity;BMP_temperature;BMP_pressure;BME280_temperature;BME280_humidity;BME280_pressure;Samples;Min_cycle;Max_cycle;Signal;HPM_P1;HPM_P2
2022/07/03 00:02:00;;;;;;;4.40;2.60;;;19.90;99.90;;;;;;5071424;28;20522;-81
2022/07/03 00:04:27;;;;;;;3.30;2.83;;;19.80;99.90;;;;;;5064318;28;20482;-79
2022/07/03 00:06:55;;;;;;;6.80;2.37;;;19.80;99.90;;;;;;5062668;28;20483;-81
2022/07/03 00:09:22;;;;;;;3.10;2.77;;;19.90;99.90;;;;;;5065213;28;20454;-80
2022/07/03 00:11:49;;;;;;;3.10;2.73;;;19.90;99.90;;;;;;5064056;28;20501;-80
2022/07/03 00:14:17;;;;;;;3.93;3.23;;;19.90;99.90;;;;;;5064845;28;20466;-81
2022/07/03 00:16:45;;;;;;;3.00;2.70;;;19.90;99.90;;;;;;5070546;28;20533;-80
2022/07/03 00:19:13;;;;;;;3.33;3.03;;;19.90;99.90;;;;;;5069754;28;20883;-78
2022/07/03 00:21:46;;;;;;;4.50;3.30;;;19.90;99.90;;;;;;5074628;28;20498;-80
2022/07/03 00:24:21;;;;;;;4.73;3.23;;;19.80;99.90;;;;;;5072647;28;20531;-81
2022/07/03 00:26:51;;;;;;;5.80;3.20;;;19.90;99.90;;;;;;5076088;28;20452;-80
2022/07/03 00:29:20;;;;;;;3.10;2.90;;;19.70;99.90;;;;;;5068886;28;20434;-79
2022/07/03 00:31:48;;;;;;;2.70;2.30;;;19.70;99.90;;;;;;5066889;28;20490;-80
2022/07/03 00:34:18;;;;;;;3.13;2.70;;;19.70;99.90;;;;;;5066953;28;20541;-80
2022/07/03 00:36:47;;;;;;;4.80;2.63;;;19.60;99.90;;;;;;5065648;28;20529;-79
2022/07/03 00:39:14;;;;;;;4.40;2.93;;;19.60;99.90;;;;;;5067541;28;20462;-78
2022/07/03 00:41:44;;;;;;;5.43;3.53;;;19.60;99.90;;;;;;5065305;28;20500;-81
2022/07/03 00:44:11;;;;;;;3.73;3.43;;;19.60;99.90;;;;;;5066022;28;20913;-81
2022/07/03 00:46:39;;;;;;;3.10;2.80;;;19.60;99.90;;;;;;5069818;28;20520;-79
2022/07/03 00:49:09;;;;;;;3.43;3.20;;;19.60;99.90;;;;;;5057537;28;20812;-77
2022/07/03 00:51:40;;;;;;;3.43;3.10;;;19.60;99.90;;;;;;5065390;28;20517;-78
2022/07/03 00:54:09;;;;;;;3.13;2.80;;;19.60;99.90;;;;;;5065164;28;20466;-79
2022/07/03 00:56:40;;;;;;;6.30;3.33;;;19.60;99.90;;;;;;5072396;28;20520;-82
2022/07/03 00:59:07;;;;;;;5.57;3.40;;;19.50;99.90;;;;;;5064248;28;20449;-82
2022/07/03 01:01:38;;;;;;;3.10;2.90;;;19.50;99.90;;;;;;5062317;28;20474;-80
2022/07/03 01:07:18;;;;;;;6.30;3.53;;;19.50;99.90;;;;;;5142695;27;20539;-78
2022/07/03 01:09:56;;;;;;;6.73;4.13;;;19.50;99.90;;;;;;5126272;27;20443;-78
2022/07/03 01:12:34;;;;;;;3.60;3.30;;;19.50;99.90;;;;;;5108282;28;20898;-79
2022/07/03 01:15:10;;;;;;;5.40;3.53;;;19.40;99.90;;;;;;5125137;28;20442;-79
2022/07/03 01:17:40;;;;;;;3.70;3.20;;;19.50;99.90;;;;;;5113051;28;20438;-79
2022/07/03 01:20:08;;;;;;;4.47;3.57;;;19.40;99.90;;;;;;5112287;28;20527;-80
2022/07/03 01:22:42;;;;;;;4.30;3.90;;;19.30;99.90;;;;;;5086726;28;20539;-78
2022/07/03 01:25:25;;;;;;;3.70;3.40;;;19.30;99.90;;;;;;5110750;28;20509;-77
2022/07/03 01:28:09;;;;;;;3.70;3.40;;;19.30;99.90;;;;;;5109612;28;20450;-76
2022/07/03 01:30:39;;;;;;;5.23;3.77;;;19.20;99.90;;;;;;5105487;28;20459;-78
2022/07/03 01:33:09;;;;;;;5.20;4.70;;;19.10;99.90;;;;;;5110345;28;20886;-76
2022/07/03 01:35:38;;;;;;;7.50;5.90;;;19.00;99.90;;;;;;5105178;28;20551;-77
2022/07/03 01:38:08;;;;;;;5.30;4.83;;;19.00;99.90;;;;;;5110400;28;20471;-77
2022/07/03 01:40:36;;;;;;;4.40;4.00;;;18.90;99.90;;;;;;5111333;28;20466;-78
2022/07/03 01:43:08;;;;;;;5.90;4.20;;;18.90;99.90;;;;;;5110666;28;20530;-77
2022/07/03 01:45:39;;;;;;;4.20;3.50;;;18.90;99.90;;;;;;5111216;28;20926;-77
2022/07/03 01:48:08;;;;;;;6.33;4.63;;;18.90;99.90;;;;;;5107964;28;20527;-76
2022/07/03 01:50:38;;;;;;;4.03;3.37;;;18.80;99.90;;;;;;5121141;28;20442;-77
2022/07/03 01:53:09;;;;;;;6.00;3.03;;;18.80;99.90;;;;;;5123687;28;21004;-78
2022/07/03 01:55:43;;;;;;;4.70;3.40;;;18.70;99.90;;;;;;5128464;28;20440;-78
2022/07/03 01:58:12;;;;;;;7.53;3.93;;;18.60;99.90;;;;;;5113107;28;20440;-80
2022/07/03 02:00:46;;;;;;;4.43;3.83;;;18.60;99.90;;;;;;5109331;28;20462;-77
2022/07/03 02:03:22;;;;;;;5.10;3.20;;;18.50;99.90;;;;;;5116989;28;20499;-77
2022/07/03 02:05:51;;;;;;;4.33;3.13;;;18.50;99.90;;;;;;5108601;28;21027;-79
2022/07/03 02:08:35;;;;;;;4.93;4.43;;;18.60;99.90;;;;;;5110181;28;20449;-77
2022/07/03 02:11:10;;;;;;;4.90;3.93;;;18.50;99.90;;;;;;5095025;28;20824;-76
2022/07/03 02:13:45;;;;;;;5.60;4.63;;;18.50;99.90;;;;;;5092869;28;20482;-77
2022/07/03 02:16:17;;;;;;;4.90;4.50;;;18.40;99.90;;;;;;5093825;28;20438;-78
2022/07/03 02:18:45;;;;;;;4.40;3.73;;;18.30;99.90;;;;;;5095609;28;20534;-77
2022/07/03 02:21:15;;;;;;;6.83;4.80;;;18.30;99.90;;;;;;5093834;28;20460;-77
2022/07/03 02:23:54;;;;;;;5.00;4.07;;;18.30;99.90;;;;;;5093473;28;21033;-77
2022/07/03 02:26:25;;;;;;;6.70;4.03;;;18.40;99.90;;;;;;5094018;28;20575;-79
2022/07/03 02:28:59;;;;;;;6.33;5.27;;;18.30;99.90;;;;;;5084143;28;20471;-78
2022/07/03 02:31:27;;;;;;;4.40;4.00;;;18.30;99.90;;;;;;5075453;28;20446;-77
2022/07/03 02:33:59;;;;;;;4.90;4.50;;;18.30;99.90;;;;;;5104112;28;20467;-78
2022/07/03 02:36:29;;;;;;;6.93;6.27;;;18.30;99.90;;;;;;5098435;28;20447;-76
2022/07/03 02:38:58;;;;;;;8.67;6.70;;;18.40;99.90;;;;;;5105601;28;20432;-78
2022/07/03 02:41:35;;;;;;;6.07;5.00;;;18.50;99.90;;;;;;5102043;28;20440;-77
2022/07/03 02:44:11;;;;;;;9.87;5.13;;;18.40;99.90;;;;;;5114569;28;20460;-78
2022/07/03 02:46:52;;;;;;;7.50;6.60;;;18.40;99.90;;;;;;5092645;28;20482;-78
2022/07/03 02:49:48;;;;;;;6.10;5.50;;;18.30;99.90;;;;;;5095679;28;20479;-76
2022/07/03 02:52:33;;;;;;;9.40;6.00;;;18.20;99.90;;;;;;5089383;28;20452;-77
2022/07/03 02:55:08;;;;;;;5.90;5.40;;;18.20;99.90;;;;;;5076734;28;20499;-76
2022/07/03 02:57:40;;;;;;;9.00;7.10;;;18.20;99.90;;;;;;5094823;28;20438;-77
2022/07/03 03:00:10;;;;;;;6.50;5.80;;;18.10;99.90;;;;;;5094783;28;20440;-76
2022/07/03 03:02:52;;;;;;;6.40;5.57;;;18.10;99.90;;;;;;5097505;28;20461;-78
2022/07/03 03:05:36;;;;;;;5.43;4.93;;;18.10;99.90;;;;;;5098474;28;20470;-77
2022/07/03 03:08:13;;;;;;;7.20;5.43;;;18.10;99.90;;;;;;5096758;28;20475;-78
2022/07/03 03:10:41;;;;;;;6.47;5.87;;;18.00;99.90;;;;;;5113807;28;20447;-78
2022/07/03 03:13:19;;;;;;;5.73;5.23;;;18.00;99.90;;;;;;5098073;28;20904;-79
2022/07/03 03:15:59;;;;;;;5.10;4.67;;;18.00;99.90;;;;;;5077094;28;20441;-78
2022/07/03 03:18:29;;;;;;;6.47;5.17;;;18.00;99.90;;;;;;5106666;28;20443;-78
2022/07/03 03:21:00;;;;;;;9.27;5.57;;;18.00;99.90;;;;;;5116221;28;20453;-78
2022/07/03 03:23:35;;;;;;;7.20;6.17;;;18.00;99.90;;;;;;5096533;28;20571;-79
2022/07/03 03:26:03;;;;;;;6.87;6.13;;;18.00;99.90;;;;;;5097546;28;20569;-79
2022/07/03 03:28:30;;;;;;;5.53;5.03;;;18.00;99.90;;;;;;5098417;28;20456;-79
2022/07/03 03:30:58;;;;;;;7.80;6.23;;;18.00;99.90;;;;;;5097590;28;20492;-78
2022/07/03 03:33:26;;;;;;;5.30;4.80;;;18.20;99.90;;;;;;5093416;28;20468;-78
2022/07/03 03:35:53;;;;;;;5.00;4.50;;;18.20;99.90;;;;;;5096558;28;20516;-77
2022/07/03 03:38:19;;;;;;;6.83;5.43;;;18.30;99.90;;;;;;5098806;28;20455;-80
2022/07/03 03:40:47;;;;;;;6.10;5.03;;;18.40;99.90;;;;;;5095950;28;20438;-79
2022/07/03 03:43:14;;;;;;;5.53;5.03;;;18.40;99.90;;;;;;5094212;28;20471;-79
2022/07/03 03:45:53;;;;;;;7.43;5.63;;;18.50;99.90;;;;;;5114321;28;20444;-78
2022/07/03 03:48:21;;;;;;;6.43;5.80;;;18.50;99.90;;;;;;5094673;28;20494;-78
2022/07/03 03:50:49;;;;;;;6.10;5.60;;;18.50;99.90;;;;;;5104969;28;20516;-79
2022/07/03 03:53:18;;;;;;;5.07;4.67;;;18.40;99.90;;;;;;5090306;28;20464;-78
2022/07/03 03:55:59;;;;;;;5.47;4.93;;;18.40;99.90;;;;;;5092199;28;20447;-80
2022/07/03 03:58:26;;;;;;;5.17;4.33;;;18.50;99.90;;;;;;5075139;28;20795;-79
2022/07/03 04:00:57;;;;;;;6.87;5.03;;;18.50;99.90;;;;;;5091758;28;20444;-77
2022/07/03 04:03:26;;;;;;;4.87;4.47;;;18.50;99.90;;;;;;5090857;28;20581;-77
2022/07/03 04:05:53;;;;;;;5.13;4.63;;;18.60;99.90;;;;;;5091883;28;20546;-79
2022/07/03 04:08:20;;;;;;;5.13;4.63;;;18.60;99.90;;;;;;5094249;28;20923;-78
2022/07/03 04:10:47;;;;;;;5.73;5.13;;;18.70;99.90;;;;;;5091165;28;20462;-78
2022/07/03 04:13:14;;;;;;;6.80;5.30;;;18.90;99.90;;;;;;5094960;28;20491;-79
2022/07/03 04:15:41;;;;;;;5.53;5.13;;;19.30;99.90;;;;;;5097504;28;20475;-78
2022/07/03 04:18:09;;;;;;;5.37;4.87;;;19.60;99.90;;;;;;5089506;28;20451;-78
2022/07/03 04:20:37;;;;;;;4.20;3.80;;;20.10;99.90;;;;;;5091695;28;20467;-78
2022/07/03 04:23:04;;;;;;;5.23;4.10;;;21.00;99.90;;;;;;5093022;28;20476;-76
2022/07/03 04:25:32;;;;;;;5.43;4.23;;;21.80;99.90;;;;;;5094221;28;20886;-79
2022/07/03 04:27:58;;;;;;;4.43;3.90;;;22.40;99.90;;;;;;5099069;28;20492;-78
2022/07/03 04:30:31;;;;;;;6.60;4.67;;;22.50;99.90;;;;;;5104080;28;20805;-78
2022/07/03 04:32:58;;;;;;;5.43;4.77;;;22.90;99.90;;;;;;5094877;28;20487;-78
2022/07/03 04:35:25;;;;;;;5.10;4.70;;;22.60;99.90;;;;;;5091355;28;20481;-79
2022/07/03 04:37:54;;;;;;;6.03;5.00;;;22.20;99.90;;;;;;5085422;28;20942;-79
2022/07/03 04:40:21;;;;;;;6.47;4.50;;;22.20;99.90;;;;;;5093122;28;20910;-78
2022/07/03 04:42:48;;;;;;;5.30;4.90;;;22.10;99.90;;;;;;5087882;28;20542;-78
2022/07/03 04:45:15;;;;;;;8.33;4.40;;;21.90;99.90;;;;;;5093495;28;21008;-79
2022/07/03 04:47:42;;;;;;;4.73;4.33;;;21.60;99.90;;;;;;5083191;28;20615;-79
2022/07/03 04:50:10;;;;;;;5.27;4.73;;;21.40;99.90;;;;;;5091041;28;20559;-78
2022/07/03 04:52:36;;;;;;;5.70;5.20;;;21.10;99.90;;;;;;5087917;28;20533;-77
2022/07/03 04:55:06;;;;;;;12.03;6.20;;;20.90;99.90;;;;;;5083852;28;20457;-78
2022/07/03 04:57:32;;;;;;;7.07;6.37;;;20.70;99.90;;;;;;5086687;28;20835;-79
2022/07/03 05:00:03;;;;;;;5.90;5.33;;;20.40;99.90;;;;;;5087360;28;21149;-75
2022/07/03 05:02:30;;;;;;;6.23;5.63;;;20.20;99.90;;;;;;5094096;28;21005;-75
2022/07/03 05:04:57;;;;;;;6.23;5.63;;;20.20;99.90;;;;;;5097969;28;20539;-76
2022/07/03 05:07:24;;;;;;;9.63;5.80;;;20.10;99.90;;;;;;5100947;28;20804;-75
2022/07/03 05:09:52;;;;;;;6.33;5.80;;;20.00;99.90;;;;;;5092346;28;20919;-74
2022/07/03 05:12:21;;;;;;;5.60;5.10;;;20.00;99.90;;;;;;5079510;28;20540;-76
2022/07/03 05:14:48;;;;;;;8.10;5.30;;;20.00;99.90;;;;;;5092284;28;20866;-76
2022/07/03 05:17:14;;;;;;;4.53;4.13;;;20.50;99.90;;;;;;5086310;28;20539;-76
2022/07/03 05:19:42;;;;;;;4.17;3.87;;;21.70;99.90;;;;;;5090419;28;20471;-77
2022/07/03 05:22:10;;;;;;;4.57;3.37;;;23.20;99.90;;;;;;5086834;28;20444;-76
2022/07/03 05:24:37;;;;;;;7.83;4.10;;;24.80;99.90;;;;;;5090300;28;20493;-76
2022/07/03 05:27:05;;;;;;;4.73;3.47;;;26.20;96.60;;;;;;5092195;28;20475;-76
2022/07/03 05:29:33;;;;;;;4.17;2.83;;;27.40;93.20;;;;;;5092028;28;20444;-75
2022/07/03 05:32:00;;;;;;;4.40;3.67;;;28.30;90.90;;;;;;5089726;28;20557;-75
2022/07/03 05:34:27;;;;;;;6.13;4.00;;;29.30;87.30;;;;;;5090590;28;20436;-75
2022/07/03 05:36:56;;;;;;;4.87;3.77;;;29.80;83.80;;;;;;5098171;28;20497;-76
2022/07/03 05:39:37;;;;;;;2.67;2.43;;;30.20;82.80;;;;;;5102100;28;20527;-77
2022/07/03 05:42:05;;;;;;;3.93;3.20;;;30.00;80.30;;;;;;5106381;28;20520;-77
2022/07/03 05:44:33;;;;;;;5.53;3.07;;;30.50;78.80;;;;;;5111628;28;20467;-77
2022/07/03 05:47:00;;;;;;;4.40;2.87;;;30.80;77.80;;;;;;5105105;28;20476;-75
2022/07/03 05:49:29;;;;;;;3.93;2.83;;;31.20;76.40;;;;;;5099286;28;20451;-75
2022/07/03 05:51:56;;;;;;;3.83;3.00;;;30.90;74.70;;;;;;5099978;28;20610;-77
2022/07/03 05:54:23;;;;;;;3.33;3.03;;;31.50;74.70;;;;;;5097079;28;20819;-78
2022/07/03 05:56:50;;;;;;;3.17;2.50;;;32.10;72.90;;;;;;5094439;28;20526;-75
2022/07/03 05:59:17;;;;;;;4.93;3.13;;;32.60;71.10;;;;;;5095628;28;20479;-75
2022/07/03 06:01:45;;;;;;;6.00;2.80;;;32.80;70.00;;;;;;5094840;28;20793;-77
2022/07/03 06:04:12;;;;;;;3.23;2.93;;;32.90;69.20;;;;;;5094835;28;20468;-74
2022/07/03 06:06:39;;;;;;;3.80;2.17;;;33.20;69.10;;;;;;5095135;28;20524;-74
2022/07/03 06:09:06;;;;;;;3.60;2.60;;;33.20;67.90;;;;;;5101249;28;20476;-75
2022/07/03 06:11:33;;;;;;;4.37;2.20;;;33.30;67.50;;;;;;5087068;28;20451;-76
2022/07/03 06:14:00;;;;;;;3.87;2.63;;;32.70;66.80;;;;;;5090674;28;20468;-74
2022/07/03 06:16:27;;;;;;;3.40;2.07;;;32.90;66.80;;;;;;5102534;28;20609;-75
2022/07/03 06:18:55;;;;;;;2.60;2.00;;;33.40;66.40;;;;;;5096845;28;20432;-74
2022/07/03 06:21:22;;;;;;;3.20;2.90;;;33.90;65.30;;;;;;5095098;28;20471;-75
2022/07/03 06:23:49;;;;;;;2.73;2.23;;;33.80;64.30;;;;;;5093797;28;20468;-75
2022/07/03 06:26:16;;;;;;;2.93;2.40;;;33.50;64.40;;;;;;5089153;28;20441;-76
2022/07/03 06:28:43;;;;;;;3.43;2.70;;;33.10;65.20;;;;;;5102819;28;20483;-76
2022/07/03 06:31:11;;;;;;;3.37;2.43;;;33.20;64.90;;;;;;5087784;28;20449;-75
2022/07/03 06:33:38;;;;;;;3.70;2.23;;;33.10;64.40;;;;;;5094825;28;20913;-76
2022/07/03 06:36:06;;;;;;;3.67;2.27;;;33.00;64.40;;;;;;5093537;28;20453;-73
2022/07/03 06:38:33;;;;;;;2.63;2.20;;;32.70;64.60;;;;;;5094086;28;20437;-74
2022/07/03 06:41:00;;;;;;;2.10;1.70;;;31.90;65.70;;;;;;5092243;28;20804;-74
2022/07/03 06:43:27;;;;;;;3.50;2.20;;;31.80;67.10;;;;;;5093991;28;20570;-74
2022/07/03 06:45:54;;;;;;;5.03;1.80;;;32.70;66.10;;;;;;5095269;28;20471;-75
2022/07/03 06:48:21;;;;;;;3.33;2.43;;;33.40;64.90;;;;;;5093855;28;20472;-72
2022/07/03 06:50:48;;;;;;;4.30;2.30;;;33.80;62.30;;;;;;5088409;28;20444;-72
2022/07/03 06:53:17;;;;;;;5.17;2.77;;;34.20;61.50;;;;;;5090866;28;20463;-71
2022/07/03 06:55:46;;;;;;;7.23;3.80;;;34.40;60.40;;;;;;5093110;28;20540;-70
2022/07/03 06:58:14;;;;;;;5.50;3.80;;;34.30;59.60;;;;;;5086656;28;20525;-73
2022/07/03 07:00:42;;;;;;;7.13;4.03;;;34.10;60.00;;;;;;5094542;28;20432;-72
2022/07/03 07:03:10;;;;;;;5.60;4.03;;;34.40;59.50;;;;;;5094805;28;20470;-72
2022/07/03 07:05:37;;;;;;;6.73;3.50;;;35.00;58.60;;;;;;5093808;28;20865;-72
2022/07/03 07:08:04;;;;;;;5.17;3.67;;;35.20;58.50;;;;;;5091782;28;20523;-72
2022/07/03 07:10:32;;;;;;;5.97;4.20;;;35.80;56.90;;;;;;5088678;28;20468;-73
2022/07/03 07:12:59;;;;;;;6.00;3.30;;;36.30;55.30;;;;;;5090004;28;20474;-73
2022/07/03 07:15:26;;;;;;;8.77;3.90;;;35.80;54.60;;;;;;5095665;28;20535;-73
2022/07/03 07:17:53;;;;;;;4.10;3.27;;;35.50;55.30;;;;;;5094128;28;20537;-72
2022/07/03 07:20:20;;;;;;;4.80;3.03;;;36.10;54.40;;;;;;5094879;28;20436;-73
2022/07/03 07:22:47;;;;;;;13.57;3.17;;;35.60;52.80;;;;;;5093943;28;20531;-74
2022/07/03 07:25:14;;;;;;;4.67;2.73;;;34.90;53.40;;;;;;5086353;28;20523;-73
2022/07/03 07:27:42;;;;;;;5.47;3.10;;;35.00;53.90;;;;;;5087464;28;20468;-74
2022/07/03 07:30:10;;;;;;;12.67;4.00;;;35.90;52.90;;;;;;5090752;28;20923;-73
2022/07/03 07:32:37;;;;;;;7.83;3.37;;;36.20;52.60;;;;;;5091989;28;20547;-72
2022/07/03 07:35:05;;;;;;;5.40;2.70;;;35.90;52.80;;;;;;5096285;28;20468;-73
2022/07/03 07:37:40;;;;;;;3.83;2.53;;;36.20;52.50;;;;;;5097189;28;20483;-72
2022/07/03 07:40:09;;;;;;;3.57;2.30;;;36.50;51.20;;;;;;5096172;28;20584;-71
2022/07/03 07:42:37;;;;;;;5.40;2.53;;;36.30;50.80;;;;;;5100908;28;20524;-68
2022/07/03 07:45:06;;;;;;;4.10;3.00;;;36.20;50.60;;;;;;5095709;28;20523;-71
2022/07/03 07:47:33;;;;;;;14.90;3.90;;;36.30;51.00;;;;;;5084958;28;20546;-72
2022/07/03 07:50:00;;;;;;;5.17;3.20;;;36.20;50.10;;;;;;5091481;28;20539;-73
2022/07/03 07:52:27;;;;;;;3.87;2.87;;;36.20;49.70;;;;;;5093642;28;21031;-71
2022/07/03 07:54:54;;;;;;;6.53;3.33;;;36.50;49.80;;;;;;5088567;28;20507;-72
2022/07/03 07:57:41;;;;;;;6.70;2.77;;;36.90;49.50;;;;;;5091417;28;20847;-79
2022/07/03 08:00:12;;;;;;;11.03;2.90;;;37.30;48.30;;;;;;5089226;28;20467;-71
2022/07/03 08:05:37;;;;;;;3.60;1.70;;;38.60;45.30;;;;;;5090236;28;20522;-72
2022/07/03 08:08:06;;;;;;;4.73;2.50;;;39.20;43.90;;;;;;5083350;28;20530;-71
2022/07/03 08:10:38;;;;;;;5.87;2.00;;;38.70;44.20;;;;;;5083068;28;20508;-70
2022/07/03 08:13:06;;;;;;;4.27;2.50;;;38.40;43.60;;;;;;5091978;28;20509;-72
2022/07/03 08:15:35;;;;;;;5.40;2.20;;;38.50;42.50;;;;;;5100170;28;20428;-72
2022/07/03 08:18:04;;;;;;;6.57;2.33;;;38.40;43.80;;;;;;5089414;28;20479;-72
2022/07/03 08:20:31;;;;;;;7.37;2.47;;;38.80;42.80;;;;;;5091854;28;20447;-73
2022/07/03 08:22:58;;;;;;;3.77;1.60;;;38.90;41.80;;;;;;5085177;28;20833;-71
2022/07/03 08:25:25;;;;;;;6.03;1.87;;;39.00;40.60;;;;;;5093173;28;20444;-73
2022/07/03 08:27:53;;;;;;;4.13;2.20;;;39.40;38.40;;;;;;5088823;28;20515;-72
2022/07/03 08:30:20;;;;;;;5.97;1.90;;;39.10;38.40;;;;;;5089121;28;20495;-72
2022/07/03 08:32:50;;;;;;;4.83;2.07;;;39.20;38.80;;;;;;5086623;28;20500;-72
2022/07/03 08:35:18;;;;;;;4.80;2.27;;;39.10;38.50;;;;;;5086396;28;20450;-72
2022/07/03 08:37:46;;;;;;;3.07;2.00;;;38.50;38.40;;;;;;5090445;28;20431;-73
2022/07/03 08:40:15;;;;;;;3.00;2.00;;;38.60;39.10;;;;;;5086859;28;20476;-75
2022/07/03 08:42:46;;;;;;;4.50;1.47;;;38.50;39.50;;;;;;5089427;28;20476;-73
2022/07/03 08:45:15;;;;;;;2.27;1.37;;;38.30;38.50;;;;;;5090755;28;20927;-73
2022/07/03 08:47:43;;;;;;;4.10;2.00;;;37.20;37.90;;;;;;5093136;28;20487;-74
2022/07/03 08:50:13;;;;;;;4.30;1.80;;;36.10;39.60;;;;;;5081433;28;20444;-76
2022/07/03 08:52:43;;;;;;;3.60;2.00;;;35.90;41.00;;;;;;5091721;28;20452;-72
2022/07/03 08:55:13;;;;;;;4.10;2.40;;;36.30;41.10;;;;;;5086840;28;20452;-74
2022/07/03 08:57:42;;;;;;;4.80;1.90;;;36.50;41.00;;;;;;5089144;28;20440;-73
2022/07/03 09:00:12;;;;;;;1.80;1.17;;;37.10;40.70;;;;;;5096596;28;20436;-73
2022/07/03 09:02:40;;;;;;;1.27;1.00;;;37.60;40.00;;;;;;5100721;28;20555;-74
2022/07/03 09:05:09;;;;;;;3.10;1.23;;;38.20;39.50;;;;;;5099306;28;20817;-73
2022/07/03 09:07:38;;;;;;;2.03;1.20;;;38.50;38.20;;;;;;5090959;28;20522;-73
2022/07/03 09:10:07;;;;;;;1.70;1.00;;;38.40;38.40;;;;;;5092992;28;20449;-73
2022/07/03 09:12:35;;;;;;;2.73;1.30;;;38.30;38.30;;;;;;5094922;28;20498;-73
2022/07/03 09:15:03;;;;;;;2.13;1.23;;;38.40;38.20;;;;;;5100416;28;20444;-76
2022/07/03 09:17:31;;;;;;;4.53;1.30;;;38.40;37.70;;;;;;5100205;28;20444;-74
2022/07/03 09:20:00;;;;;;;2.00;1.47;;;38.50;37.90;;;;;;5090570;28;20449;-75
2022/07/03 09:22:29;;;;;;;4.17;1.93;;;38.00;37.50;;;;;;5093774;28;21052;-74
2022/07/03 09:25:06;;;;;;;2.03;1.00;;;37.70;39.50;;;;;;5087200;28;20491;-73
2022/07/03 09:27:34;;;;;;;1.47;1.00;;;37.10;39.20;;;;;;5087548;28;20547;-73
2022/07/03 09:30:03;;;;;;;2.93;1.10;;;35.60;39.90;;;;;;5094271;28;20448;-74
2022/07/03 09:32:41;;;;;;;1.80;1.10;;;35.70;40.60;;;;;;5096711;28;20546;-73
2022/07/03 09:35:17;;;;;;;3.87;1.40;;;35.70;42.20;;;;;;5072053;28;20468;-73
2022/07/03 09:37:49;;;;;;;1.47;1.00;;;35.60;42.00;;;;;;5083467;28;20455;-74
2022/07/03 09:40:18;;;;;;;1.27;0.80;;;35.50;42.00;;;;;;5092491;28;20448;-75
2022/07/03 09:43:02;;;;;;;1.83;0.95;;;35.40;42.00;;;;;;5094970;28;20460;-76
2022/07/03 09:45:44;;;;;;;4.40;1.00;;;35.50;41.70;;;;;;5095190;28;20285;-73
2022/07/03 09:48:26;;;;;;;1.77;1.33;;;35.30;41.90;;;;;;5097761;28;20923;-75
2022/07/03 09:51:11;;;;;;;2.42;1.20;;;35.70;42.10;;;;;;5091346;28;20436;-73
2022/07/03 09:53:46;;;;;;;2.10;1.13;;;35.80;41.90;;;;;;5091062;28;20274;-74
2022/07/03 09:56:15;;;;;;;3.88;1.10;;;35.60;41.70;;;;;;5092190;28;20463;-75
2022/07/03 09:58:59;;;;;;;2.50;1.40;;;35.90;42.50;;;;;;5090987;28;20482;-73
2022/07/03 10:01:26;;;;;;;3.50;1.90;;;36.00;42.30;;;;;;5092995;28;20428;-73
2022/07/03 10:03:54;;;;;;;2.65;1.33;;;35.50;42.30;;;;;;5094917;28;20440;-75
2022/07/03 10:06:21;;;;;;;3.17;1.20;;;35.60;42.40;;;;;;5089948;28;20871;-74
2022/07/03 10:08:50;;;;;;;2.70;1.20;;;35.60;42.70;;;;;;5094971;28;20527;-75
2022/07/03 10:11:18;;;;;;;1.80;1.20;;;35.40;42.90;;;;;;5095163;28;20221;-74
2022/07/03 10:13:46;;;;;;;1.83;1.10;;;35.40;43.20;;;;;;5088960;28;20815;-73
2022/07/03 10:16:15;;;;;;;2.50;1.30;;;34.40;43.80;;;;;;5092704;28;20871;-76
2022/07/03 10:18:48;;;;;;;2.57;1.30;;;33.30;45.10;;;;;;5095034;28;20448;-72
2022/07/03 10:21:16;;;;;;;2.27;1.10;;;32.00;46.90;;;;;;5073230;28;20490;-75
2022/07/03 10:23:45;;;;;;;2.50;1.63;;;31.80;47.90;;;;;;5091691;28;20487;-76
2022/07/03 10:26:12;;;;;;;1.87;0.90;;;32.20;47.20;;;;;;5093657;28;20444;-72
2022/07/03 10:28:42;;;;;;;4.40;1.00;;;32.50;47.10;;;;;;5100997;28;21005;-74
2022/07/03 10:31:09;;;;;;;3.03;1.20;;;33.00;47.40;;;;;;5088968;28;20448;-75
2022/07/03 10:33:38;;;;;;;4.20;1.63;;;33.50;47.10;;;;;;5097404;28;20463;-72
2022/07/03 10:36:08;;;;;;;2.90;1.30;;;34.00;46.80;;;;;;5103559;28;20501;-75
2022/07/03 10:38:40;;;;;;;3.10;1.23;;;34.00;45.60;;;;;;5088743;28;20508;-77
2022/07/03 10:46:43;;;;;;;3.70;1.33;;;32.10;46.70;;;;;;5089906;28;20439;-74
2022/07/03 10:49:11;;;;;;;6.37;1.07;;;31.60;48.30;;;;;;5091507;28;20547;-75
2022/07/03 10:51:55;;;;;;;2.53;0.90;;;31.60;48.70;;;;;;5094271;28;20473;-71
2022/07/03 10:54:23;;;;;;;2.63;1.13;;;31.50;48.80;;;;;;5092370;28;20479;-75
2022/07/03 10:57:10;;;;;;;2.73;1.37;;;31.30;49.40;;;;;;5093618;28;20437;-73
2022/07/03 11:00:10;;;;;;;5.17;1.63;;;31.00;49.90;;;;;;5085530;28;20451;-74
2022/07/03 11:02:40;;;;;;;2.27;1.20;;;31.00;50.40;;;;;;5085145;28;20468;-74
2022/07/03 11:05:22;;;;;;;1.70;1.10;;;30.70;50.70;;;;;;5094480;28;20885;-75
2022/07/03 11:08:07;;;;;;;1.67;1.30;;;30.40;51.60;;;;;;5093222;28;20483;-76
2022/07/03 11:10:40;;;;;;;2.33;1.67;;;30.20;52.20;;;;;;5092888;28;20434;-75
2022/07/03 11:13:09;;;;;;;2.57;1.30;;;29.90;52.20;;;;;;5094119;28;20541;-75
2022/07/03 11:15:40;;;;;;;4.30;1.20;;;29.50;53.50;;;;;;5089316;28;20445;-73
2022/07/03 11:18:17;;;;;;;4.23;1.53;;;29.50;54.50;;;;;;5094037;28;20804;-74
2022/07/03 11:21:23;;;;;;;2.97;1.57;;;29.30;55.90;;;;;;5070069;28;20448;-75
2022/07/03 11:24:28;;;;;;;3.40;2.80;;;29.30;56.20;;;;;;5089267;28;20465;-74
2022/07/03 11:27:24;;;;;;;1.77;1.40;;;29.40;55.60;;;;;;5074921;28;20452;-76
2022/07/03 11:30:01;;;;;;;3.53;1.40;;;29.80;54.60;;;;;;5045486;28;20480;-77
2022/07/03 11:32:51;;;;;;;2.70;1.33;;;30.30;54.00;;;;;;5093843;28;20470;-75
2022/07/03 11:35:54;;;;;;;2.87;1.10;;;30.40;53.40;;;;;;5092385;28;20472;-74
2022/07/03 11:38:30;;;;;;;2.60;1.30;;;30.70;52.90;;;;;;5093488;28;20429;-75
2022/07/03 11:41:00;;;;;;;3.20;1.27;;;30.50;52.90;;;;;;5104994;28;20464;-73
2022/07/03 11:43:27;;;;;;;1.70;1.30;;;30.40;54.00;;;;;;5101793;28;20499;-76
2022/07/03 11:45:54;;;;;;;2.93;1.80;;;30.70;54.30;;;;;;5098678;28;20857;-76
2022/07/03 11:48:23;;;;;;;1.80;1.40;;;30.80;55.10;;;;;;5088272;28;21622;-77
2022/07/03 11:50:50;;;;;;;4.60;1.40;;;31.00;55.60;;;;;;5085435;28;20528;-75
2022/07/03 11:53:27;;;;;;;2.60;1.63;;;31.10;55.60;;;;;;5092974;28;20482;-72
2022/07/03 11:55:56;;;;;;;1.77;1.20;;;30.80;55.20;;;;;;5088801;28;20479;-76
2022/07/03 11:58:24;;;;;;;2.20;1.23;;;31.10;55.90;;;;;;5092910;28;20513;-76
2022/07/03 12:00:52;;;;;;;3.83;1.80;;;31.10;55.80;;;;;;5093131;28;20455;-76
2022/07/03 12:03:24;;;;;;;4.20;1.40;;;31.20;55.00;;;;;;5093022;28;20476;-73
2022/07/03 12:05:53;;;;;;;2.17;1.30;;;31.20;54.70;;;;;;5099830;28;20594;-73
2022/07/03 12:08:27;;;;;;;2.67;1.50;;;30.80;54.30;;;;;;5102758;28;20531;-77
2022/07/03 12:11:02;;;;;;;2.37;1.30;;;30.60;54.90;;;;;;5096791;28;20528;-73
2022/07/03 12:13:30;;;;;;;5.20;1.70;;;30.50;54.10;;;;;;5093232;28;20555;-76
2022/07/03 12:16:06;;;;;;;2.70;1.80;;;30.10;54.90;;;;;;5099131;28;20536;-73
2022/07/03 12:18:46;;;;;;;3.37;1.60;;;29.80;55.40;;;;;;5085186;28;20523;-74
2022/07/03 12:21:13;;;;;;;3.60;1.80;;;29.80;55.90;;;;;;5092617;28;20497;-73
2022/07/03 12:23:51;;;;;;;3.43;1.80;;;29.70;56.30;;;;;;5088217;28;20473;-74
2022/07/03 12:26:31;;;;;;;2.70;1.60;;;29.70;56.80;;;;;;5091946;28;20523;-75
2022/07/03 12:28:59;;;;;;;3.40;1.30;;;29.70;56.20;;;;;;5093560;28;20836;-75
2022/07/03 12:31:28;;;;;;;2.10;1.20;;;29.70;55.50;;;;;;5083692;28;20437;-73
2022/07/03 12:33:56;;;;;;;2.17;1.47;;;30.00;54.60;;;;;;5089468;28;20540;-73
2022/07/03 12:36:23;;;;;;;3.23;1.50;;;30.20;53.00;;;;;;5084995;28;20562;-75
2022/07/03 12:38:53;;;;;;;2.30;1.50;;;30.10;52.70;;;;;;5097719;28;20472;-75
2022/07/03 12:41:20;;;;;;;2.83;1.30;;;30.10;52.60;;;;;;5091328;28;20534;-74
2022/07/03 12:43:51;;;;;;;1.73;1.10;;;30.00;53.10;;;;;;5092889;28;20813;-74
2022/07/03 12:46:22;;;;;;;3.00;1.30;;;30.10;52.70;;;;;;5094692;28;20881;-75
2022/07/03 12:48:51;;;;;;;6.87;1.40;;;30.20;52.40;;;;;;5091670;28;20565;-72
2022/07/03 12:51:38;;;;;;;2.50;1.27;;;30.00;55.40;;;;;;5091326;28;20444;-75
2022/07/03 12:54:07;;;;;;;1.83;1.30;;;29.70;56.60;;;;;;5090928;28;20544;-73
2022/07/03 12:56:34;;;;;;;1.63;1.20;;;29.70;57.20;;;;;;5086194;28;20528;-74
2022/07/03 12:59:18;;;;;;;4.40;1.60;;;29.80;57.80;;;;;;5085803;28;20503;-74
2022/07/03 13:01:46;;;;;;;2.70;1.30;;;30.00;57.70;;;;;;5086595;28;20436;-76
2022/07/03 13:04:17;;;;;;;1.93;1.60;;;30.00;57.80;;;;;;5092335;28;20783;-75
2022/07/03 13:06:46;;;;;;;2.10;1.13;;;30.30;57.80;;;;;;5093697;28;20459;-74
2022/07/03 13:09:14;;;;;;;2.90;1.30;;;30.30;56.30;;;;;;5093377;28;20992;-74
2022/07/03 13:11:43;;;;;;;2.87;1.47;;;30.00;57.00;;;;;;5085168;28;20437;-74
2022/07/03 13:14:12;;;;;;;3.37;1.80;;;29.80;57.40;;;;;;5081544;28;20543;-72
2022/07/03 13:16:44;;;;;;;3.47;1.60;;;29.50;57.80;;;;;;5096014;28;20610;-74